Time;durP1;ratioP1;P1;durP2;ratioP2;P2;SDS_P1;SDS_P2;PMS_P1;PMS_P2;Temp;Humidity;BMP_temperature;BMP_pressure;BME280_temperature;BME280_humidity;BME280_pressure;Samples;Min_cycle;Max_cycle;Signal;HPM_P1;HPM_P2
2023/05/25 00:00:51;;;;;;;10.73;3.50;;;8.10;93.70;;;;;;5031433;28;20052;-68
2023/05/25 00:03:19;;;;;;;9.70;4.15;;;8.00;94.00;;;;;;5037956;28;20037;-68
2023/05/25 00:05:44;;;;;;;12.32;3.58;;;8.00;93.70;;;;;;5046928;28;20033;-68
2023/05/25 00:08:10;;;;;;;10.40;4.05;;;7.90;93.90;;;;;;5046489;28;20041;-68
2023/05/25 00:10:36;;;;;;;11.82;4.45;;;8.00;94.00;;;;;;5048420;28;20176;-68
2023/05/25 00:13:01;;;;;;;10.00;4.30;;;7.90;94.00;;;;;;5048422;28;20032;-68
2023/05/25 00:15:27;;;;;;;11.18;5.00;;;7.90;94.70;;;;;;5049176;28;20109;-68
2023/05/25 00:17:53;;;;;;;10.20;4.40;;;7.80;95.20;;;;;;5047351;28;20127;-68
2023/05/25 00:20:19;;;;;;;14.80;4.45;;;7.80;95.00;;;;;;5045985;28;20037;-68
2023/05/25 00:22:45;;;;;;;7.60;3.67;;;7.80;95.00;;;;;;5043907;28;20372;-68
2023/05/25 00:25:11;;;;;;;10.30;3.72;;;7.70;94.70;;;;;;5038202;28;20149;-68
2023/05/25 00:27:36;;;;;;;10.00;3.92;;;7.70;94.20;;;;;;5043985;28;20041;-68
2023/05/25 00:30:02;;;;;;;8.65;4.78;;;7.70;94.20;;;;;;5036768;28;20094;-68
2023/05/25 00:32:28;;;;;;;10.25;3.70;;;7.60;94.40;;;;;;5041382;28;20040;-68
2023/05/25 00:34:54;;;;;;;5.60;3.75;;;7.70;94.30;;;;;;5040062;28;20139;-68
2023/05/25 00:37:20;;;;;;;12.13;3.95;;;7.60;94.20;;;;;;5036979;28;20060;-68
2023/05/25 00:39:45;;;;;;;9.98;3.95;;;7.60;94.30;;;;;;5035282;28;20397;-68
2023/05/25 00:42:11;;;;;;;8.63;3.70;;;7.60;94.30;;;;;;5044160;28;20118;-68
2023/05/25 00:44:37;;;;;;;11.85;4.15;;;7.60;94.50;;;;;;5034259;28;20067;-68
2023/05/25 00:47:03;;;;;;;8.70;3.72;;;7.50;94.50;;;;;;5017680;28;20064;-68
2023/05/25 00:49:32;;;;;;;11.82;4.00;;;7.60;94.60;;;;;;5029852;28;20139;-67
2023/05/25 00:51:58;;;;;;;9.27;4.07;;;7.50;94.40;;;;;;5033648;28;20044;-68
2023/05/25 00:54:24;;;;;;;7.82;3.58;;;7.50;94.50;;;;;;5038843;28;20067;-68
2023/05/25 00:56:59;;;;;;;11.80;4.10;;;7.50;94.40;;;;;;5043824;28;20068;-68
2023/05/25 00:59:35;;;;;;;7.68;3.75;;;7.40;94.90;;;;;;5028824;28;20045;-68
2023/05/25 01:02:10;;;;;;;11.45;3.60;;;7.40;94.80;;;;;;5040486;28;20364;-67
2023/05/25 01:04:39;;;;;;;12.38;3.88;;;7.40;94.60;;;;;;5040404;28;20036;-68
2023/05/25 01:07:07;;;;;;;9.68;3.67;;;7.40;94.30;;;;;;5046212;28;20044;-68
2023/05/25 01:09:37;;;;;;;9.05;4.53;;;7.30;94.40;;;;;;5043118;28;20397;-68
2023/05/25 01:12:03;;;;;;;10.40;3.92;;;7.30;94.40;;;;;;5041856;28;20036;-67
2023/05/25 01:14:30;;;;;;;12.70;4.22;;;7.30;94.40;;;;;;5045009;28;20366;-67
2023/05/25 01:16:57;;;;;;;10.15;3.25;;;7.30;94.50;;;;;;5042140;28;20029;-67
2023/05/25 01:19:23;;;;;;;8.88;3.70;;;7.20;94.40;;;;;;5040720;28;20041;-68
2023/05/25 01:22:11;;;;;;;6.70;3.40;;;7.20;94.30;;;;;;5045717;28;20119;-68
2023/05/25 01:24:46;;;;;;;10.90;4.45;;;7.20;94.90;;;;;;5038422;28;20033;-68
2023/05/25 01:27:18;;;;;;;12.48;4.22;;;7.20;94.60;;;;;;5041663;28;20461;-67
2023/05/25 01:29:45;;;;;;;8.18;4.65;;;7.10;94.80;;;;;;5059904;28;20033;-67
2023/05/25 01:32:13;;;;;;;11.48;5.25;;;7.10;95.10;;;;;;5031077;28;20040;-67
2023/05/25 01:34:40;;;;;;;10.77;3.90;;;7.10;94.90;;;;;;5043425;28;20036;-67
2023/05/25 01:37:05;;;;;;;9.20;4.00;;;7.10;94.80;;;;;;5043147;28;21070;-68
2023/05/25 01:39:31;;;;;;;10.40;3.78;;;7.10;94.70;;;;;;5027899;28;20122;-67
2023/05/25 01:41:57;;;;;;;8.13;3.72;;;7.10;94.60;;;;;;5060707;28;20041;-68
2023/05/25 01:44:23;;;;;;;7.90;3.40;;;7.00;94.40;;;;;;5034963;28;20052;-68
2023/05/25 01:47:15;;;;;;;12.27;3.88;;;7.00;94.90;;;;;;5060246;28;20037;-67
2023/05/25 01:50:13;;;;;;;9.20;3.58;;;7.00;95.20;;;;;;5010264;28;20048;-67
2023/05/25 01:52:47;;;;;;;9.00;3.35;;;7.00;94.80;;;;;;5037761;28;20087;-68
2023/05/25 01:55:16;;;;;;;9.45;3.55;;;7.00;94.60;;;;;;5042570;28;20430;-67
2023/05/25 01:57:45;;;;;;;13.40;4.25;;;7.00;94.60;;;;;;5034009;28;20100;-68
2023/05/25 02:00:12;;;;;;;9.38;3.67;;;7.00;94.60;;;;;;5047606;28;20025;-67
2023/05/25 02:02:41;;;;;;;8.82;4.00;;;7.00;94.60;;;;;;5048902;28;20104;-67
2023/05/25 02:05:08;;;;;;;9.43;3.28;;;7.00;94.60;;;;;;5042445;28;20437;-67
2023/05/25 02:07:35;;;;;;;9.80;3.58;;;7.00;94.50;;;;;;5047691;28;20081;-67
2023/05/25 02:10:00;;;;;;;12.80;3.30;;;6.90;94.40;;;;;;5029862;28;20060;-67
2023/05/25 02:12:26;;;;;;;12.05;4.82;;;6.90;94.40;;;;;;5045130;28;20303;-67
2023/05/25 02:14:51;;;;;;;11.63;3.67;;;6.80;94.30;;;;;;5031269;28;20099;-67
2023/05/25 02:17:17;;;;;;;9.85;3.78;;;6.80;94.90;;;;;;5046400;28;20100;-67
2023/05/25 02:19:43;;;;;;;8.50;3.63;;;6.70;95.10;;;;;;5046139;28;20037;-67
2023/05/25 02:22:09;;;;;;;12.70;3.67;;;6.80;94.80;;;;;;5044221;28;20048;-67
2023/05/25 02:24:36;;;;;;;10.48;4.68;;;6.80;94.80;;;;;;5049240;28;20125;-67
2023/05/25 02:27:03;;;;;;;11.88;4.05;;;6.80;94.80;;;;;;5046146;28;20040;-67
2023/05/25 02:29:28;;;;;;;9.98;4.30;;;6.80;94.80;;;;;;5030758;28;20048;-67
2023/05/25 02:31:55;;;;;;;12.02;4.93;;;6.70;94.80;;;;;;5027537;28;20038;-67
2023/05/25 02:34:20;;;;;;;11.07;4.68;;;6.70;95.30;;;;;;5049282;28;20492;-67
2023/05/25 02:36:46;;;;;;;9.18;4.38;;;6.70;95.50;;;;;;5059194;28;20036;-68
2023/05/25 02:39:11;;;;;;;14.48;4.80;;;6.70;95.80;;;;;;5050088;28;20041;-67
2023/05/25 02:41:38;;;;;;;13.95;5.40;;;6.70;95.60;;;;;;5052305;28;20434;-67
2023/05/25 02:44:04;;;;;;;11.07;4.90;;;6.70;95.70;;;;;;5040983;28;20132;-68
2023/05/25 02:46:29;;;;;;;17.40;5.45;;;6.70;95.90;;;;;;5036865;28;20486;-67
2023/05/25 02:48:57;;;;;;;11.82;4.72;;;6.70;95.70;;;;;;5060653;28;20047;-67
2023/05/25 02:51:23;;;;;;;15.50;5.25;;;6.80;96.60;;;;;;5051139;28;20572;-67
2023/05/25 02:53:48;;;;;;;14.55;5.63;;;6.80;96.40;;;;;;5038553;28;20067;-67
2023/05/25 02:56:14;;;;;;;14.93;5.35;;;6.80;96.10;;;;;;5035005;28;20341;-67
2023/05/25 02:58:40;;;;;;;10.07;4.65;;;6.80;96.40;;;;;;5051718;28;20360;-67
2023/05/25 03:01:09;;;;;;;13.90;5.57;;;6.80;96.20;;;;;;5030478;28;20025;-67
2023/05/25 03:03:35;;;;;;;12.10;4.60;;;6.80;96.00;;;;;;5025192;28;20374;-67
2023/05/25 03:06:03;;;;;;;14.40;4.85;;;6.70;95.80;;;;;;5049754;28;20040;-67
2023/05/25 03:08:29;;;;;;;14.32;5.43;;;6.70;96.10;;;;;;5034675;28;20036;-67
2023/05/25 03:10:55;;;;;;;13.65;5.00;;;6.70;96.00;;;;;;5043371;28;20048;-67
2023/05/25 03:13:20;;;;;;;11.00;4.95;;;6.70;96.50;;;;;;5046069;28;20028;-67
2023/05/25 03:15:46;;;;;;;13.43;5.18;;;6.70;96.20;;;;;;5049049;28;20205;-67
2023/05/25 03:18:11;;;;;;;14.52;5.20;;;6.70;96.20;;;;;;5020769;28;20095;-67
2023/05/25 03:20:37;;;;;;;12.02;6.00;;;6.60;96.90;;;;;;5029809;28;20201;-67
2023/05/25 03:23:03;;;;;;;12.13;5.60;;;6.60;97.10;;;;;;5049134;28;20087;-67
2023/05/25 03:25:28;;;;;;;12.95;5.43;;;6.60;97.10;;;;;;5048149;28;20032;-66
2023/05/25 03:27:54;;;;;;;11.40;6.05;;;6.60;96.80;;;;;;5039349;28;20076;-66
2023/05/25 03:30:21;;;;;;;14.60;5.43;;;6.70;97.00;;;;;;5046531;28;20055;-67
2023/05/25 03:32:46;;;;;;;19.33;6.30;;;6.70;97.00;;;;;;5035892;28;20132;-68
2023/05/25 03:35:12;;;;;;;9.88;4.95;;;6.70;96.70;;;;;;5051652;28;20116;-67
2023/05/25 03:37:38;;;;;;;12.70;5.60;;;6.70;96.90;;;;;;5039527;28;20063;-67
2023/05/25 03:40:04;;;;;;;16.20;7.20;;;6.70;97.30;;;;;;5054747;28;20060;-66
2023/05/25 03:42:29;;;;;;;12.20;5.22;;;6.70;96.90;;;;;;5032525;28;20037;-67
2023/05/25 03:44:55;;;;;;;12.25;5.13;;;6.70;96.80;;;;;;5031113;28;20869;-67
2023/05/25 03:47:20;;;;;;;11.07;5.40;;;6.70;96.70;;;;;;5045986;28;20056;-67
2023/05/25 03:49:46;;;;;;;13.75;6.05;;;6.70;96.70;;;;;;5035645;28;20397;-67
2023/05/25 03:52:12;;;;;;;10.35;5.70;;;6.70;96.80;;;;;;5056702;28;20040;-67
2023/05/25 03:54:37;;;;;;;14.48;5.13;;;6.70;96.70;;;;;;5054683;28;20087;-67
2023/05/25 03:57:03;;;;;;;14.32;5.28;;;6.70;96.70;;;;;;5043573;28;20037;-67
2023/05/25 03:59:29;;;;;;;14.18;5.75;;;6.70;96.80;;;;;;5048016;28;20125;-67
2023/05/25 04:01:55;;;;;;;13.32;5.70;;;6.70;97.20;;;;;;5045710;28;20075;-67
2023/05/25 04:04:20;;;;;;;11.10;5.55;;;6.70;97.50;;;;;;5028777;28;20029;-67
2023/05/25 04:06:47;;;;;;;16.08;6.07;;;6.70;97.60;;;;;;5046225;28;20119;-67
2023/05/25 04:09:14;;;;;;;17.35;6.45;;;6.70;97.70;;;;;;5048784;28;20141;-67
2023/05/25 04:11:39;;;;;;;13.80;6.03;;;6.80;97.70;;;;;;5048447;28;20126;-67
2023/05/25 04:14:05;;;;;;;13.15;6.50;;;6.80;97.40;;;;;;5049047;28;20116;-67
2023/05/25 04:16:31;;;;;;;14.13;6.20;;;6.90;97.50;;;;;;5048871;28;20111;-67
2023/05/25 04:18:56;;;;;;;13.95;6.03;;;7.00;97.60;;;;;;5030345;28;20458;-68
2023/05/25 04:21:22;;;;;;;14.38;6.18;;;7.00;97.50;;;;;;5043534;28;20045;-67
2023/05/25 04:23:48;;;;;;;9.60;5.60;;;7.00;97.40;;;;;;5031078;28;20041;-68
2023/05/25 04:26:15;;;;;;;10.02;5.82;;;7.00;97.40;;;;;;5045866;28;20428;-67
2023/05/25 04:28:40;;;;;;;12.35;6.55;;;7.10;97.80;;;;;;5046179;28;20041;-68
2023/05/25 04:31:07;;;;;;;14.23;6.82;;;7.20;97.90;;;;;;5053012;28;20043;-72
2023/05/25 04:33:37;;;;;;;17.45;6.60;;;7.30;97.80;;;;;;5030009;28;20071;-67
2023/05/25 04:36:03;;;;;;;17.55;6.43;;;7.40;97.90;;;;;;5025898;28;20064;-68
2023/05/25 04:38:29;;;;;;;17.60;6.93;;;7.40;98.00;;;;;;5044065;28;20155;-67
2023/05/25 04:40:56;;;;;;;15.32;6.22;;;7.60;98.20;;;;;;5043591;28;20116;-68
2023/05/25 04:43:24;;;;;;;16.50;6.53;;;7.60;98.20;;;;;;5043925;28;20148;-67
2023/05/25 04:45:53;;;;;;;17.10;7.40;;;7.80;98.50;;;;;;5026893;28;20159;-68
2023/05/25 04:48:19;;;;;;;15.77;6.47;;;7.90;98.40;;;;;;5036976;28;20107;-68
2023/05/25 04:50:45;;;;;;;19.38;7.90;;;8.00;98.60;;;;;;5044577;28;20043;-68
2023/05/25 04:53:10;;;;;;;18.38;6.72;;;8.10;98.60;;;;;;5039312;28;20056;-68
2023/05/25 04:55:36;;;;;;;14.75;7.10;;;8.30;98.70;;;;;;5041610;28;20586;-68
2023/05/25 04:58:04;;;;;;;20.55;8.20;;;8.50;98.90;;;;;;5040718;28;20069;-68
2023/05/25 05:00:30;;;;;;;18.48;7.35;;;8.70;98.90;;;;;;5045854;28;20039;-68
2023/05/25 05:02:57;;;;;;;24.40;8.73;;;8.90;98.90;;;;;;5017693;28;20037;-69
2023/05/25 05:05:23;;;;;;;22.70;7.38;;;9.00;98.90;;;;;;5029371;28;20044;-68
2023/05/25 05:07:49;;;;;;;21.05;8.75;;;9.20;98.90;;;;;;5040396;28;20044;-68
2023/05/25 05:10:14;;;;;;;20.75;8.63;;;9.40;98.80;;;;;;5042772;28;20044;-69
2023/05/25 05:12:40;;;;;;;22.50;8.73;;;9.60;98.80;;;;;;5033378;28;20076;-68
2023/05/25 05:15:06;;;;;;;22.42;8.82;;;9.80;99.10;;;;;;5023170;28;20051;-69
2023/05/25 05:17:32;;;;;;;27.20;9.25;;;10.00;99.30;;;;;;5045847;28;20104;-68
2023/05/25 05:19:57;;;;;;;22.20;8.05;;;10.10;99.40;;;;;;5047798;28;20360;-68
2023/05/25 05:22:23;;;;;;;19.45;7.65;;;10.30;99.60;;;;;;5021325;28;20087;-69
2023/05/25 05:24:48;;;;;;;18.10;7.95;;;10.50;99.60;;;;;;5049331;28;20036;-69
2023/05/25 05:27:14;;;;;;;17.83;7.95;;;10.60;99.80;;;;;;5048358;28;20587;-68
2023/05/25 05:29:41;;;;;;;19.75;8.57;;;10.80;99.80;;;;;;5030620;28;20047;-69
2023/05/25 05:32:07;;;;;;;20.48;8.15;;;10.90;99.90;;;;;;5038806;28;20056;-70
2023/05/25 05:34:33;;;;;;;18.75;8.07;;;11.10;99.90;;;;;;5026340;28;20043;-68
2023/05/25 05:36:59;;;;;;;15.90;7.18;;;11.20;99.90;;;;;;5003486;28;20104;-69
2023/05/25 05:39:26;;;;;;;15.23;7.05;;;11.40;99.90;;;;;;5037021;28;20659;-69
2023/05/25 05:41:52;;;;;;;19.30;7.38;;;11.50;99.90;;;;;;5036034;28;20047;-68
2023/05/25 05:44:20;;;;;;;14.60;6.90;;;11.70;99.90;;;;;;5030947;28;20064;-69
2023/05/25 05:46:45;;;;;;;20.48;7.93;;;11.80;99.90;;;;;;5045182;28;20041;-70
2023/05/25 05:49:11;;;;;;;14.57;7.07;;;12.00;99.90;;;;;;5044527;28;20371;-69
2023/05/25 05:51:37;;;;;;;15.88;6.72;;;12.20;99.90;;;;;;5044220;28;20037;-70
2023/05/25 05:54:03;;;;;;;14.38;6.68;;;12.30;99.90;;;;;;5040007;28;20663;-71
2023/05/25 05:56:29;;;;;;;15.18;6.57;;;12.60;99.70;;;;;;5043071;28;20069;-70
2023/05/25 05:58:54;;;;;;;14.63;6.07;;;12.70;99.50;;;;;;5052014;28;20065;-70
2023/05/25 06:01:21;;;;;;;14.98;6.90;;;12.90;99.10;;;;;;5044324;28;20128;-70
2023/05/25 06:03:47;;;;;;;12.80;6.15;;;13.00;98.60;;;;;;5045097;28;20064;-70
2023/05/25 06:06:13;;;;;;;14.80;5.75;;;13.10;98.20;;;;;;5039939;28;20830;-70
2023/05/25 06:08:41;;;;;;;16.02;6.60;;;13.20;97.90;;;;;;5047788;28;20049;-69
2023/05/25 06:11:07;;;;;;;19.65;6.57;;;13.30;97.30;;;;;;5043853;28;20051;-70
2023/05/25 06:13:32;;;;;;;18.58;6.38;;;13.50;96.70;;;;;;5042311;28;20124;-70
2023/05/25 06:15:58;;;;;;;11.90;6.15;;;13.40;96.10;;;;;;5043883;28;20037;-70
2023/05/25 06:18:24;;;;;;;10.75;4.88;;;13.40;95.30;;;;;;5047028;28;20044;-70
2023/05/25 06:20:49;;;;;;;13.00;5.82;;;13.40;94.60;;;;;;5043510;28;20405;-70
2023/05/25 06:23:17;;;;;;;13.27;5.45;;;13.30;94.00;;;;;;5037492;28;20093;-70
2023/05/25 06:25:43;;;;;;;12.30;4.85;;;13.30;93.50;;;;;;5041947;28;20051;-69
2023/05/25 06:28:09;;;;;;;14.38;4.40;;;13.20;93.10;;;;;;5039444;28;20045;-69
2023/05/25 06:30:35;;;;;;;18.40;4.70;;;13.30;92.80;;;;;;5042729;28;20456;-70
2023/05/25 06:33:00;;;;;;;13.73;4.25;;;13.40;92.30;;;;;;5045073;28;20481;-68
2023/05/25 06:35:26;;;;;;;12.07;4.03;;;13.50;92.10;;;;;;5046274;28;20064;-69
2023/05/25 06:37:51;;;;;;;6.47;3.63;;;13.50;91.50;;;;;;5040319;28;20044;-70
2023/05/25 06:40:17;;;;;;;9.45;3.75;;;13.70;91.10;;;;;;5045419;28;20111;-69
2023/05/25 06:42:43;;;;;;;11.52;3.88;;;13.70;90.60;;;;;;5043677;28;20679;-69
2023/05/25 06:45:09;;;;;;;13.10;3.83;;;13.60;90.10;;;;;;5045723;28;20037;-70
2023/05/25 06:47:35;;;;;;;12.55;3.53;;;13.60;89.60;;;;;;5042112;28;20128;-69
2023/05/25 06:50:02;;;;;;;9.80;2.92;;;13.60;89.20;;;;;;5037183;28;20479;-69
2023/05/25 06:52:27;;;;;;;12.98;3.25;;;13.60;88.30;;;;;;5032621;28;20042;-70
2023/05/25 06:54:54;;;;;;;10.80;3.47;;;13.70;87.70;;;;;;5045012;28;20033;-68
2023/05/25 06:57:19;;;;;;;15.18;4.07;;;13.70;86.90;;;;;;5032239;28;20048;-69
2023/05/25 06:59:45;;;;;;;11.30;3.33;;;13.90;86.30;;;;;;5043442;28;20056;-70
2023/05/25 07:02:11;;;;;;;14.07;3.30;;;14.00;85.70;;;;;;5043391;28;20109;-70
2023/05/25 07:04:36;;;;;;;16.15;3.17;;;14.10;85.00;;;;;;5037155;28;20084;-70
2023/05/25 07:07:02;;;;;;;10.93;2.75;;;14.20;84.20;;;;;;5034755;28;20048;-69
2023/05/25 07:09:28;;;;;;;13.02;3.53;;;14.20;82.70;;;;;;5032764;28;20388;-71
2023/05/25 07:11:53;;;;;;;11.43;3.00;;;14.30;82.20;;;;;;5043927;28;20101;-69
2023/05/25 07:14:19;;;;;;;10.50;3.40;;;14.60;81.50;;;;;;5026543;28;20041;-69
2023/05/25 07:16:45;;;;;;;15.40;4.55;;;14.80;81.00;;;;;;5050501;28;20041;-69
2023/05/25 07:19:11;;;;;;;15.18;4.10;;;15.10;80.70;;;;;;5031023;28;20056;-69
2023/05/25 07:21:36;;;;;;;17.10;5.97;;;15.30;79.70;;;;;;5046200;28;20037;-71
2023/05/25 07:24:03;;;;;;;12.98;4.03;;;15.60;79.20;;;;;;5048071;28;20045;-70
2023/05/25 07:26:32;;;;;;;11.45;3.72;;;15.80;78.40;;;;;;5037854;28;20049;-70
2023/05/25 07:28:58;;;;;;;13.90;3.28;;;15.70;77.20;;;;;;5051487;28;20037;-70
2023/05/25 07:31:24;;;;;;;15.95;3.33;;;15.50;78.20;;;;;;5061594;28;20043;-69
2023/05/25 07:33:49;;;;;;;8.30;3.10;;;15.30;77.80;;;;;;5049001;28;20487;-70
2023/05/25 07:36:16;;;;;;;10.98;3.20;;;15.30;77.40;;;;;;5029150;28;20382;-70
2023/05/25 07:38:41;;;;;;;13.50;2.83;;;15.50;77.10;;;;;;5040485;28;21709;-71
2023/05/25 07:41:07;;;;;;;10.65;3.78;;;15.70;76.50;;;;;;5050996;28;20051;-71
2023/05/25 07:43:32;;;;;;;7.43;2.83;;;15.90;75.40;;;;;;5043269;28;20132;-69
2023/05/25 07:46:01;;;;;;;16.35;3.50;;;15.90;74.80;;;;;;5046795;28;20458;-71
2023/05/25 07:48:26;;;;;;;5.75;2.70;;;16.30;73.30;;;;;;5037824;28;20056;-70
2023/05/25 07:50:52;;;;;;;12.88;2.85;;;16.50;72.60;;;;;;5033910;28;20049;-69
2023/05/25 07:53:18;;;;;;;12.65;3.50;;;16.70;71.40;;;;;;5037516;28;20468;-71
2023/05/25 07:55:43;;;;;;;10.40;3.55;;;16.90;71.00;;;;;;5053754;28;20048;-71
2023/05/25 07:58:09;;;;;;;14.45;3.42;;;17.20;70.80;;;;;;5068715;28;20048;-72
2023/05/25 08:00:35;;;;;;;11.70;3.53;;;17.50;70.00;;;;;;5042982;28;20041;-68
2023/05/25 08:03:01;;;;;;;14.25;3.13;;;17.50;69.30;;;;;;5047678;28;20436;-71
2023/05/25 08:05:27;;;;;;;10.93;3.15;;;17.10;69.40;;;;;;5037061;28;20461;-70
2023/05/25 08:07:53;;;;;;;16.08;4.05;;;16.90;68.80;;;;;;5043929;28;20049;-69
2023/05/25 08:10:19;;;;;;;15.38;3.50;;;17.30;68.30;;;;;;5045293;28;20128;-72
2023/05/25 08:12:45;;;;;;;11.63;3.13;;;17.60;67.00;;;;;;5032209;28;20132;-70
2023/05/25 08:15:12;;;;;;;16.30;3.60;;;18.00;66.10;;;;;;5048272;28;20040;-72
2023/05/25 08:17:37;;;;;;;13.23;3.88;;;18.60;64.80;;;;;;5030846;28;20048;-74
2023/05/25 08:20:05;;;;;;;14.38;3.75;;;19.10;62.50;;;;;;5031759;28;20041;-71
2023/05/25 08:22:30;;;;;;;15.30;3.80;;;19.60;62.00;;;;;;5043842;28;20111;-73
2023/05/25 08:24:56;;;;;;;13.00;3.47;;;20.00;60.60;;;;;;5049352;28;20064;-75
2023/05/25 08:27:22;;;;;;;14.85;4.00;;;20.60;59.30;;;;;;5051450;28;20457;-73
2023/05/25 08:29:47;;;;;;;15.65;4.03;;;20.70;57.90;;;;;;5053563;28;20516;-73
2023/05/25 08:32:13;;;;;;;12.02;3.03;;;20.40;56.90;;;;;;5035935;28;20056;-72
2023/05/25 08:34:38;;;;;;;12.77;3.42;;;19.80;56.60;;;;;;5036729;28;20128;-74
2023/05/25 08:37:04;;;;;;;17.75;3.72;;;19.40;56.40;;;;;;5036954;28;20561;-74
2023/05/25 08:39:29;;;;;;;11.73;3.30;;;19.20;56.90;;;;;;5049561;28;20393;-74
2023/05/25 08:41:55;;;;;;;13.35;3.10;;;19.00;56.40;;;;;;5062459;28;20032;-74
2023/05/25 08:44:21;;;;;;;16.50;4.28;;;18.60;56.60;;;;;;5061070;28;20089;-74
2023/05/25 08:46:50;;;;;;;17.75;3.90;;;18.50;56.80;;;;;;5048031;28;20104;-73
2023/05/25 08:49:15;;;;;;;10.77;2.67;;;18.40;56.40;;;;;;5051983;28;20072;-72
2023/05/25 08:51:50;;;;;;;11.70;2.72;;;18.20;56.60;;;;;;5037217;28;20073;-73
2023/05/25 08:54:31;;;;;;;15.88;3.67;;;18.10;56.60;;;;;;5061348;28;20127;-74
2023/05/25 08:57:25;;;;;;;13.40;3.50;;;17.90;55.60;;;;;;5035845;28;20037;-73
2023/05/25 09:00:11;;;;;;;13.43;3.45;;;17.80;54.10;;;;;;5047462;28;20121;-73
2023/05/25 09:02:41;;;;;;;16.52;3.55;;;18.20;55.00;;;;;;5043157;28;20111;-73
2023/05/25 09:05:08;;;;;;;14.45;3.63;;;18.70;54.80;;;;;;5050541;28;20147;-72
2023/05/25 09:07:34;;;;;;;18.83;4.70;;;18.70;54.40;;;;;;5037462;28;20514;-74
2023/05/25 09:10:00;;;;;;;13.02;3.55;;;18.60;54.20;;;;;;5043977;28;20037;-73
2023/05/25 09:12:29;;;;;;;12.40;3.40;;;18.80;54.10;;;;;;5044542;28;20079;-73
2023/05/25 09:14:56;;;;;;;13.93;3.55;;;19.80;52.80;;;;;;5048713;28;20103;-71
2023/05/25 09:17:22;;;;;;;17.35;4.25;;;19.90;52.00;;;;;;5026918;28;20051;-72
2023/05/25 09:19:49;;;;;;;15.65;3.75;;;19.70;51.80;;;;;;5047843;28;20038;-73
2023/05/25 09:22:15;;;;;;;15.45;3.50;;;19.70;51.40;;;;;;5043808;28;20731;-71
2023/05/25 09:24:42;;;;;;;16.58;4.20;;;19.50;52.10;;;;;;5059180;28;20070;-73
2023/05/25 09:27:16;;;;;;;16.17;4.05;;;19.50;50.90;;;;;;5031682;28;20060;-70
2023/05/25 09:29:42;;;;;;;12.20;3.60;;;19.40;49.00;;;;;;5048280;28;20056;-73
2023/05/25 09:32:07;;;;;;;18.92;3.60;;;19.20;50.80;;;;;;5042240;28;20046;-71
2023/05/25 09:34:33;;;;;;;16.30;3.80;;;18.90;50.90;;;;;;5039879;28;20327;-73
2023/05/25 09:37:02;;;;;;;13.27;2.75;;;19.40;50.50;;;;;;5026215;28;20144;-73
2023/05/25 09:39:29;;;;;;;13.95;3.65;;;20.40;49.20;;;;;;5040160;28;20088;-72
2023/05/25 09:41:56;;;;;;;16.20;3.97;;;20.40;47.80;;;;;;5032970;28;20117;-73
2023/05/25 09:44:21;;;;;;;13.52;3.92;;;20.20;47.80;;;;;;5033968;28;20172;-73
2023/05/25 09:46:47;;;;;;;16.58;3.78;;;20.40;48.00;;;;;;5046386;28;20084;-75
2023/05/25 09:49:12;;;;;;;16.00;3.67;;;20.80;48.10;;;;;;5028825;28;20519;-74
2023/05/25 09:51:39;;;;;;;19.67;3.85;;;20.70;47.50;;;;;;5026412;28;20045;-73
2023/05/25 09:54:08;;;;;;;12.32;3.20;;;20.20;47.60;;;;;;5046836;28;20036;-74
2023/05/25 09:56:34;;;;;;;15.20;3.25;;;20.00;47.40;;;;;;5038172;28;20045;-73
2023/05/25 09:59:01;;;;;;;16.58;3.55;;;19.70;48.20;;;;;;5049024;28;20647;-74
2023/05/25 10:01:27;;;;;;;17.75;4.50;;;19.60;48.00;;;;;;5047529;28;20044;-74
2023/05/25 10:03:55;;;;;;;13.02;3.55;;;19.80;47.90;;;;;;5030235;28;20389;-75
2023/05/25 10:06:22;;;;;;;15.07;3.35;;;20.50;47.20;;;;;;5033508;28;20499;-69
2023/05/25 10:08:48;;;;;;;14.88;3.35;;;20.80;46.60;;;;;;5047092;28;20045;-74
2023/05/25 10:11:15;;;;;;;14.52;3.42;;;21.00;45.80;;;;;;5038261;28;20049;-72
2023/05/25 10:13:45;;;;;;;12.80;4.00;;;20.70;45.80;;;;;;5028768;28;20194;-74
2023/05/25 10:16:16;;;;;;;15.15;3.70;;;20.20;45.10;;;;;;5029499;28;20051;-74
2023/05/25 10:18:50;;;;;;;15.45;3.40;;;20.00;46.40;;;;;;5035292;28;20146;-73
2023/05/25 10:21:18;;;;;;;12.55;3.03;;;19.80;46.90;;;;;;5047297;28;20059;-73
2023/05/25 10:23:49;;;;;;;14.57;4.05;;;19.50;47.10;;;;;;5048006;28;20047;-71
2023/05/25 10:26:21;;;;;;;11.05;3.33;;;20.30;45.00;;;;;;5048176;28;20082;-73
2023/05/25 10:28:50;;;;;;;13.15;3.38;;;20.20;45.30;;;;;;5047367;28;20060;-72
2023/05/25 10:31:17;;;;;;;16.00;4.38;;;20.20;45.40;;;;;;5047904;28;20041;-72
2023/05/25 10:33:43;;;;;;;13.02;3.28;;;21.80;44.50;;;;;;5047936;28;20067;-71
2023/05/25 10:36:12;;;;;;;11.43;3.13;;;22.20;43.10;;;;;;5051071;28;20036;-72
2023/05/25 10:38:43;;;;;;;14.45;3.55;;;21.90;42.00;;;;;;5055446;28;20052;-72
2023/05/25 10:41:10;;;;;;;16.13;3.58;;;21.30;42.10;;;;;;5041201;28;20043;-72
2023/05/25 10:43:39;;;;;;;15.15;4.32;;;20.90;43.40;;;;;;5025361;28;20068;-70
2023/05/25 10:46:06;;;;;;;16.73;3.30;;;20.70;43.40;;;;;;5047129;28;20080;-73
2023/05/25 10:48:38;;;;;;;14.15;3.55;;;20.60;44.20;;;;;;5045442;28;20040;-71
2023/05/25 10:51:05;;;;;;;13.15;2.70;;;20.80;43.40;;;;;;5049482;28;20070;-73
2023/05/25 10:53:31;;;;;;;14.02;3.03;;;21.00;43.90;;;;;;5049595;28;20129;-75
2023/05/25 10:56:04;;;;;;;10.55;3.45;;;21.50;43.60;;;;;;5036786;28;20069;-72
2023/05/25 10:58:32;;;;;;;14.60;3.22;;;21.60;42.60;;;;;;5035621;28;20183;-71
2023/05/25 11:01:06;;;;;;;14.50;3.55;;;21.10;42.60;;;;;;5034010;28;20121;-71
2023/05/25 11:03:46;;;;;;;16.15;3.40;;;20.90;42.90;;;;;;5051706;28;20033;-73
2023/05/25 11:06:16;;;;;;;14.27;3.50;;;20.80;42.70;;;;;;5049713;28;20125;-77
2023/05/25 11:08:56;;;;;;;11.05;3.40;;;20.50;43.70;;;;;;5050784;28;20091;-69
2023/05/25 11:11:42;;;;;;;14.77;3.55;;;20.60;43.70;;;;;;5051690;28;20048;-73
2023/05/25 11:14:30;;;;;;;15.63;3.60;;;20.40;44.30;;;;;;5053188;28;20056;-72
2023/05/25 11:17:14;;;;;;;14.20;3.70;;;20.10;43.50;;;;;;5049438;28;20041;-72
2023/05/25 11:19:47;;;;;;;14.48;3.13;;;20.30;44.90;;;;;;5035007;28;20072;-71
2023/05/25 11:22:34;;;;;;;14.18;3.55;;;20.30;43.80;;;;;;5048028;28;20097;-73
2023/05/25 11:25:01;;;;;;;16.95;3.90;;;20.40;43.80;;;;;;5034278;28;20350;-72
2023/05/25 11:27:28;;;;;;;13.90;3.47;;;20.30;44.60;;;;;;5051568;28;20487;-71
2023/05/25 11:29:56;;;;;;;13.25;3.03;;;20.20;44.50;;;;;;5051285;28;20159;-73
2023/05/25 11:32:23;;;;;;;13.57;3.33;;;20.20;44.20;;;;;;5052380;28;20045;-72
2023/05/25 11:34:51;;;;;;;13.85;3.25;;;20.20;44.30;;;;;;5046963;28;20137;-70
2023/05/25 11:37:20;;;;;;;17.42;3.92;;;20.30;43.40;;;;;;5042783;28;20115;-73
2023/05/25 11:39:47;;;;;;;14.15;4.13;;;19.90;43.50;;;;;;5050404;28;20033;-71
2023/05/25 11:42:14;;;;;;;11.95;3.28;;;19.80;44.00;;;;;;5060103;28;20033;-70
2023/05/25 11:44:40;;;;;;;10.93;3.45;;;19.90;44.00;;;;;;5034486;28;20064;-75
2023/05/25 11:47:07;;;;;;;10.75;3.17;;;20.00;43.70;;;;;;5047409;28;20103;-69
2023/05/25 11:49:45;;;;;;;12.38;3.67;;;20.00;43.50;;;;;;5051059;28;20048;-70
2023/05/25 11:52:12;;;;;;;11.25;3.17;;;20.00;43.10;;;;;;5046750;28;20041;-70
2023/05/25 11:54:41;;;;;;;13.20;3.40;;;20.00;43.20;;;;;;5025825;28;20037;-72
2023/05/25 11:57:18;;;;;;;15.90;3.90;;;20.00;43.30;;;;;;5051289;28;20041;-69
2023/05/25 11:59:48;;;;;;;17.60;4.50;;;20.20;43.30;;;;;;5051269;28;20068;-72
2023/05/25 12:02:14;;;;;;;17.75;4.55;;;20.10;43.00;;;;;;5049982;28;20048;-71
2023/05/25 12:04:41;;;;;;;14.20;3.72;;;19.90;43.90;;;;;;5050493;28;20472;-69
2023/05/25 12:07:07;;;;;;;12.27;3.63;;;20.10;43.70;;;;;;5030769;28;20147;-74
2023/05/25 12:09:33;;;;;;;14.82;3.92;;;20.20;43.40;;;;;;5034282;28;20061;-72
2023/05/25 12:12:01;;;;;;;17.08;3.63;;;20.60;42.40;;;;;;5030499;28;20103;-73
2023/05/25 12:14:27;;;;;;;14.07;3.70;;;21.00;42.60;;;;;;5036699;28;20072;-72
2023/05/25 12:16:53;;;;;;;17.30;4.20;;;21.60;41.10;;;;;;5051267;28;20138;-72
2023/05/25 12:19:20;;;;;;;15.23;3.78;;;21.80;40.80;;;;;;5050043;28;20413;-71
2023/05/25 12:21:46;;;;;;;15.90;4.47;;;21.90;40.70;;;;;;5048907;28;20072;-71
2023/05/25 12:24:12;;;;;;;13.07;3.53;;;22.10;40.90;;;;;;5032314;28;20322;-71
2023/05/25 12:26:49;;;;;;;11.68;3.15;;;22.40;39.60;;;;;;5050893;28;20029;-71
2023/05/25 12:29:15;;;;;;;13.27;3.70;;;23.60;36.90;;;;;;5051924;28;20531;-72
2023/05/25 12:31:41;;;;;;;15.00;3.72;;;25.00;35.20;;;;;;5049879;28;20045;-75
2023/05/25 12:34:07;;;;;;;12.43;3.30;;;24.80;34.50;;;;;;5051610;28;20056;-72
2023/05/25 12:36:53;;;;;;;13.52;3.78;;;25.90;34.00;;;;;;5049015;28;20063;-74
2023/05/25 12:39:27;;;;;;;8.63;3.50;;;27.40;32.30;;;;;;5049496;28;20483;-72
2023/05/25 12:41:54;;;;;;;9.52;3.20;;;28.30;30.60;;;;;;5026696;28;20259;-71
2023/05/25 12:44:40;;;;;;;15.52;3.67;;;29.10;29.70;;;;;;5036250;28;20443;-71